sensor_id;sensor_type;location;lat;lon;timestamp;temperature;humidity
7822;DHT22;3956;50.558;9.678;2023-05-10T00:02:19;14.80;1.00
7822;DHT22;3956;50.558;9.678;2023-05-10T00:04:49;14.80;1.00
7822;DHT22;3956;50.558;9.678;2023-05-10T00:07:19;14.90;1.00
7822;DHT22;3956;50.558;9.678;2023-05-10T00:09:50;14.90;1.00
7822;DHT22;3956;50.558;9.678;2023-05-10T00:12:20;14.90;1.00
7822;DHT22;3956;50.558;9.678;2023-05-10T00:14:50;14.90;1.00
7822;DHT22;3956;50.558;9.678;2023-05-10T00:17:18;14.90;1.00
7822;DHT22;3956;50.558;9.678;2023-05-10T00:19:49;14.80;1.00
7822;DHT22;3956;50.558;9.678;2023-05-10T00:22:23;14.80;1.00
7822;DHT22;3956;50.558;9.678;2023-05-10T00:24:54;14.80;1.00
7822;DHT22;3956;50.558;9.678;2023-05-10T00:27:31;14.70;1.00
7822;DHT22;3956;50.558;9.678;2023-05-10T00:30:21;14.70;1.00
7822;DHT22;3956;50.558;9.678;2023-05-10T00:32:53;14.50;1.00
7822;DHT22;3956;50.558;9.678;2023-05-10T00:35:31;14.30;34.70
7822;DHT22;3956;50.558;9.678;2023-05-10T00:38:03;14.20;1.00
7822;DHT22;3956;50.558;9.678;2023-05-10T00:40:36;14.00;17.20
7822;DHT22;3956;50.558;9.678;2023-05-10T00:43:05;13.90;1.00
7822;DHT22;3956;50.558;9.678;2023-05-10T00:45:36;13.80;1.00
7822;DHT22;3956;50.558;9.678;2023-05-10T00:48:05;13.80;1.00
7822;DHT22;3956;50.558;9.678;2023-05-10T00:50:40;13.80;72.70
7822;DHT22;3956;50.558;9.678;2023-05-10T00:53:15;13.80;99.90
7822;DHT22;3956;50.558;9.678;2023-05-10T00:55:45;13.80;99.90
7822;DHT22;3956;50.558;9.678;2023-05-10T00:58:16;13.70;99.90
7822;DHT22;3956;50.558;9.678;2023-05-10T01:00:46;13.50;99.90
7822;DHT22;3956;50.558;9.678;2023-05-10T01:03:20;13.70;99.90
7822;DHT22;3956;50.558;9.678;2023-05-10T01:05:51;13.60;99.90
7822;DHT22;3956;50.558;9.678;2023-05-10T01:08:25;13.50;99.90
7822;DHT22;3956;50.558;9.678;2023-05-10T01:10:56;13.80;99.90
7822;DHT22;3956;50.558;9.678;2023-05-10T01:13:31;13.80;99.90
7822;DHT22;3956;50.558;9.678;2023-05-10T01:16:04;13.70;99.90
7822;DHT22;3956;50.558;9.678;2023-05-10T01:18:36;13.60;99.90
7822;DHT22;3956;50.558;9.678;2023-05-10T01:21:17;13.60;99.90
7822;DHT22;3956;50.558;9.678;2023-05-10T01:30:14;13.60;99.90
7822;DHT22;3956;50.558;9.678;2023-05-10T01:32:55;13.90;99.90
7822;DHT22;3956;50.558;9.678;2023-05-10T01:35:36;13.80;99.90
7822;DHT22;3956;50.558;9.678;2023-05-10T01:38:16;13.90;99.90
7822;DHT22;3956;50.558;9.678;2023-05-10T01:41:08;13.70;99.90
7822;DHT22;3956;50.558;9.678;2023-05-10T01:43:48;13.80;99.90
7822;DHT22;3956;50.558;9.678;2023-05-10T01:46:24;13.90;99.90
7822;DHT22;3956;50.558;9.678;2023-05-10T01:48:59;13.90;4.30
7822;DHT22;3956;50.558;9.678;2023-05-10T01:51:31;13.80;1.00
7822;DHT22;3956;50.558;9.678;2023-05-10T01:54:02;13.90;99.90
7822;DHT22;3956;50.558;9.678;2023-05-10T01:56:33;13.80;99.90
7822;DHT22;3956;50.558;9.678;2023-05-10T01:59:06;13.90;99.90
7822;DHT22;3956;50.558;9.678;2023-05-10T02:01:40;13.90;1.00
7822;DHT22;3956;50.558;9.678;2023-05-10T02:04:17;13.90;99.90
7822;DHT22;3956;50.558;9.678;2023-05-10T02:06:49;13.60;99.90
7822;DHT22;3956;50.558;9.678;2023-05-10T02:09:24;13.70;99.90
7822;DHT22;3956;50.558;9.678;2023-05-10T02:11:58;13.80;1.00
7822;DHT22;3956;50.558;9.678;2023-05-10T02:14:30;13.70;34.60
7822;DHT22;3956;50.558;9.678;2023-05-10T02:17:00;13.40;1.00
7822;DHT22;3956;50.558;9.678;2023-05-10T02:19:37;13.30;1.00
7822;DHT22;3956;50.558;9.678;2023-05-10T02:22:06;13.20;99.90
7822;DHT22;3956;50.558;9.678;2023-05-10T02:24:38;13.10;99.90
7822;DHT22;3956;50.558;9.678;2023-05-10T02:27:10;13.00;99.90
7822;DHT22;3956;50.558;9.678;2023-05-10T02:29:40;13.00;99.90
7822;DHT22;3956;50.558;9.678;2023-05-10T02:32:14;13.30;1.00
7822;DHT22;3956;50.558;9.678;2023-05-10T02:35:12;13.20;99.90
7822;DHT22;3956;50.558;9.678;2023-05-10T02:37:42;13.10;99.90
7822;DHT22;3956;50.558;9.678;2023-05-10T02:40:13;13.10;1.00
7822;DHT22;3956;50.558;9.678;2023-05-10T02:42:43;13.00;1.00
7822;DHT22;3956;50.558;9.678;2023-05-10T02:45:19;12.50;98.70
7822;DHT22;3956;50.558;9.678;2023-05-10T02:47:49;12.50;1.00
7822;DHT22;3956;50.558;9.678;2023-05-10T02:50:19;12.40;1.00
7822;DHT22;3956;50.558;9.678;2023-05-10T02:53:11;12.50;1.00
7822;DHT22;3956;50.558;9.678;2023-05-10T02:55:50;12.50;1.00
7822;DHT22;3956;50.558;9.678;2023-05-10T02:58:22;12.40;99.90
7822;DHT22;3956;50.558;9.678;2023-05-10T03:00:51;12.40;1.00
7822;DHT22;3956;50.558;9.678;2023-05-10T03:03:23;12.40;99.90
7822;DHT22;3956;50.558;9.678;2023-05-10T03:05:57;12.40;62.30
7822;DHT22;3956;50.558;9.678;2023-05-10T03:08:26;12.50;1.00
7822;DHT22;3956;50.558;9.678;2023-05-10T03:11:16;12.50;1.00
7822;DHT22;3956;50.558;9.678;2023-05-10T03:13:59;12.50;99.90
7822;DHT22;3956;50.558;9.678;2023-05-10T03:16:37;12.50;99.90
7822;DHT22;3956;50.558;9.678;2023-05-10T03:19:39;12.50;99.90
7822;DHT22;3956;50.558;9.678;2023-05-10T03:22:21;12.50;99.90
7822;DHT22;3956;50.558;9.678;2023-05-10T03:25:09;12.60;99.90
7822;DHT22;3956;50.558;9.678;2023-05-10T03:27:56;12.40;1.00
7822;DHT22;3956;50.558;9.678;2023-05-10T03:30:25;12.30;1.00
7822;DHT22;3956;50.558;9.678;2023-05-10T03:32:53;12.30;1.00
7822;DHT22;3956;50.558;9.678;2023-05-10T03:35:25;12.40;1.00
7822;DHT22;3956;50.558;9.678;2023-05-10T03:38:22;12.40;99.90
7822;DHT22;3956;50.558;9.678;2023-05-10T03:41:11;12.50;99.90
7822;DHT22;3956;50.558;9.678;2023-05-10T03:43:49;12.50;99.90
7822;DHT22;3956;50.558;9.678;2023-05-10T03:46:24;12.50;98.00
7822;DHT22;3956;50.558;9.678;2023-05-10T03:48:53;12.40;1.00
7822;DHT22;3956;50.558;9.678;2023-05-10T03:51:22;12.60;99.90
7822;DHT22;3956;50.558;9.678;2023-05-10T03:54:07;12.60;83.50
7822;DHT22;3956;50.558;9.678;2023-05-10T03:56:45;12.60;81.70
7822;DHT22;3956;50.558;9.678;2023-05-10T03:59:15;12.60;1.00
7822;DHT22;3956;50.558;9.678;2023-05-10T04:01:44;12.60;1.00
7822;DHT22;3956;50.558;9.678;2023-05-10T04:04:13;12.50;1.00
7822;DHT22;3956;50.558;9.678;2023-05-10T04:06:42;12.60;1.00
7822;DHT22;3956;50.558;9.678;2023-05-10T04:09:17;12.70;1.00
7822;DHT22;3956;50.558;9.678;2023-05-10T04:11:48;12.70;1.00
7822;DHT22;3956;50.558;9.678;2023-05-10T04:14:16;12.60;1.00
7822;DHT22;3956;50.558;9.678;2023-05-10T04:16:44;12.60;1.00
7822;DHT22;3956;50.558;9.678;2023-05-10T04:19:13;12.50;1.00
7822;DHT22;3956;50.558;9.678;2023-05-10T04:21:44;12.30;99.90
7822;DHT22;3956;50.558;9.678;2023-05-10T04:24:15;12.30;96.30
7822;DHT22;3956;50.558;9.678;2023-05-10T04:26:44;12.20;99.90
7822;DHT22;3956;50.558;9.678;2023-05-10T04:29:14;12.20;1.00
7822;DHT22;3956;50.558;9.678;2023-05-10T04:31:47;12.10;99.90
7822;DHT22;3956;50.558;9.678;2023-05-10T04:35:00;12.20;99.90
7822;DHT22;3956;50.558;9.678;2023-05-10T04:37:32;12.40;99.90
7822;DHT22;3956;50.558;9.678;2023-05-10T04:40:18;12.40;99.90
7822;DHT22;3956;50.558;9.678;2023-05-10T04:42:57;12.40;26.20
7822;DHT22;3956;50.558;9.678;2023-05-10T04:45:49;12.40;16.40
7822;DHT22;3956;50.558;9.678;2023-05-10T04:48:19;12.50;68.40
7822;DHT22;3956;50.558;9.678;2023-05-10T04:50:47;12.50;1.00
7822;DHT22;3956;50.558;9.678;2023-05-10T04:53:15;12.60;1.00
7822;DHT22;3956;50.558;9.678;2023-05-10T04:55:46;12.60;1.00
7822;DHT22;3956;50.558;9.678;2023-05-10T04:58:15;12.60;1.00
7822;DHT22;3956;50.558;9.678;2023-05-10T05:00:44;12.60;1.00
7822;DHT22;3956;50.558;9.678;2023-05-10T05:03:12;12.50;1.00
7822;DHT22;3956;50.558;9.678;2023-05-10T05:05:54;12.60;1.00
7822;DHT22;3956;50.558;9.678;2023-05-10T05:08:25;12.60;1.00
7822;DHT22;3956;50.558;9.678;2023-05-10T05:11:01;12.70;1.00
7822;DHT22;3956;50.558;9.678;2023-05-10T05:13:31;12.60;1.00
7822;DHT22;3956;50.558;9.678;2023-05-10T05:16:01;12.60;1.00
7822;DHT22;3956;50.558;9.678;2023-05-10T05:18:33;12.80;1.00
7822;DHT22;3956;50.558;9.678;2023-05-10T05:21:13;12.90;1.00
7822;DHT22;3956;50.558;9.678;2023-05-10T05:23:44;13.00;1.00
7822;DHT22;3956;50.558;9.678;2023-05-10T05:26:18;13.00;1.00
7822;DHT22;3956;50.558;9.678;2023-05-10T05:29:18;13.10;1.00
7822;DHT22;3956;50.558;9.678;2023-05-10T05:31:47;13.10;99.90
7822;DHT22;3956;50.558;9.678;2023-05-10T05:34:20;13.30;99.90
7822;DHT22;3956;50.558;9.678;2023-05-10T05:37:16;13.20;99.90
7822;DHT22;3956;50.558;9.678;2023-05-10T05:40:22;13.30;99.90
7822;DHT22;3956;50.558;9.678;2023-05-10T05:45:52;13.30;99.90
7822;DHT22;3956;50.558;9.678;2023-05-10T05:48:31;13.40;99.90
7822;DHT22;3956;50.558;9.678;2023-05-10T05:51:18;13.30;99.90
7822;DHT22;3956;50.558;9.678;2023-05-10T05:53:49;13.70;99.90
7822;DHT22;3956;50.558;9.678;2023-05-10T05:56:17;13.70;99.90
7822;DHT22;3956;50.558;9.678;2023-05-10T05:58:58;13.50;99.90
7822;DHT22;3956;50.558;9.678;2023-05-10T06:01:50;13.90;99.90
7822;DHT22;3956;50.558;9.678;2023-05-10T06:04:19;13.80;66.10
7822;DHT22;3956;50.558;9.678;2023-05-10T06:06:49;13.90;22.30
7822;DHT22;3956;50.558;9.678;2023-05-10T06:09:19;13.90;25.30
7822;DHT22;3956;50.558;9.678;2023-05-10T06:11:48;14.20;24.50
7822;DHT22;3956;50.558;9.678;2023-05-10T06:14:16;14.10;1.00
7822;DHT22;3956;50.558;9.678;2023-05-10T06:16:53;14.40;1.00
7822;DHT22;3956;50.558;9.678;2023-05-10T06:19:25;14.40;1.00
7822;DHT22;3956;50.558;9.678;2023-05-10T06:22:00;14.30;1.00
7822;DHT22;3956;50.558;9.678;2023-05-10T06:24:30;14.40;1.00
7822;DHT22;3956;50.558;9.678;2023-05-10T06:26:58;14.60;1.00
7822;DHT22;3956;50.558;9.678;2023-05-10T06:29:29;14.70;1.00
7822;DHT22;3956;50.558;9.678;2023-05-10T06:31:59;15.00;1.00
7822;DHT22;3956;50.558;9.678;2023-05-10T06:34:29;14.30;1.00
7822;DHT22;3956;50.558;9.678;2023-05-10T06:36:59;14.40;1.00
7822;DHT22;3956;50.558;9.678;2023-05-10T06:39:31;14.70;1.00
7822;DHT22;3956;50.558;9.678;2023-05-10T06:41:59;14.70;1.00
7822;DHT22;3956;50.558;9.678;2023-05-10T06:44:38;14.40;1.00
7822;DHT22;3956;50.558;9.678;2023-05-10T06:47:16;14.40;1.00
7822;DHT22;3956;50.558;9.678;2023-05-10T06:50:18;13.90;1.00
7822;DHT22;3956;50.558;9.678;2023-05-10T06:52:53;14.10;1.00
7822;DHT22;3956;50.558;9.678;2023-05-10T06:55:30;14.10;1.00
7822;DHT22;3956;50.558;9.678;2023-05-10T06:58:35;14.30;1.00
7822;DHT22;3956;50.558;9.678;2023-05-10T07:01:13;14.00;1.00
7822;DHT22;3956;50.558;9.678;2023-05-10T07:03:45;14.10;1.00
7822;DHT22;3956;50.558;9.678;2023-05-10T07:06:18;13.80;1.00
7822;DHT22;3956;50.558;9.678;2023-05-10T07:08:59;14.00;1.00
7822;DHT22;3956;50.558;9.678;2023-05-10T07:11:27;14.10;1.00
7822;DHT22;3956;50.558;9.678;2023-05-10T07:13:55;14.30;1.00
7822;DHT22;3956;50.558;9.678;2023-05-10T07:16:24;14.20;1.00
7822;DHT22;3956;50.558;9.678;2023-05-10T07:22:35;14.40;1.00
7822;DHT22;3956;50.558;9.678;2023-05-10T07:25:17;14.70;1.00
7822;DHT22;3956;50.558;9.678;2023-05-10T07:27:48;14.50;1.00
7822;DHT22;3956;50.558;9.678;2023-05-10T07:30:18;14.40;1.00
7822;DHT22;3956;50.558;9.678;2023-05-10T07:32:46;14.60;1.00
7822;DHT22;3956;50.558;9.678;2023-05-10T07:35:19;14.50;1.00
7822;DHT22;3956;50.558;9.678;2023-05-10T07:37:49;14.70;1.00
7822;DHT22;3956;50.558;9.678;2023-05-10T07:40:17;14.70;1.00
7822;DHT22;3956;50.558;9.678;2023-05-10T07:43:00;14.80;1.00
7822;DHT22;3956;50.558;9.678;2023-05-10T07:46:06;14.70;1.00
7822;DHT22;3956;50.558;9.678;2023-05-10T07:48:34;14.80;1.00
7822;DHT22;3956;50.558;9.678;2023-05-10T07:51:05;14.80;1.00
7822;DHT22;3956;50.558;9.678;2023-05-10T07:53:44;14.90;1.00
7822;DHT22;3956;50.558;9.678;2023-05-10T07:56:24;15.20;1.00
7822;DHT22;3956;50.558;9.678;2023-05-10T07:58:56;15.00;1.00
7822;DHT22;3956;50.558;9.678;2023-05-10T08:01:26;14.90;1.00
7822;DHT22;3956;50.558;9.678;2023-05-10T08:03:54;15.30;1.00
7822;DHT22;3956;50.558;9.678;2023-05-10T08:06:22;14.80;1.00
7822;DHT22;3956;50.558;9.678;2023-05-10T08:08:57;15.10;1.00
7822;DHT22;3956;50.558;9.678;2023-05-10T08:11:31;15.20;1.00
7822;DHT22;3956;50.558;9.678;2023-05-10T08:14:08;15.20;1.00
7822;DHT22;3956;50.558;9.678;2023-05-10T08:16:36;15.30;1.00
7822;DHT22;3956;50.558;9.678;2023-05-10T08:19:04;15.70;1.00
7822;DHT22;3956;50.558;9.678;2023-05-10T08:21:32;15.80;1.00
7822;DHT22;3956;50.558;9.678;2023-05-10T08:24:03;15.80;1.00
7822;DHT22;3956;50.558;9.678;2023-05-10T08:26:33;16.00;1.00
7822;DHT22;3956;50.558;9.678;2023-05-10T08:29:01;15.80;1.00
7822;DHT22;3956;50.558;9.678;2023-05-10T08:31:29;15.90;1.00
7822;DHT22;3956;50.558;9.678;2023-05-10T08:33:57;15.30;1.00
7822;DHT22;3956;50.558;9.678;2023-05-10T08:36:25;15.30;1.00
7822;DHT22;3956;50.558;9.678;2023-05-10T08:42:26;15.70;1.00
7822;DHT22;3956;50.558;9.678;2023-05-10T08:45:01;16.10;1.00
7822;DHT22;3956;50.558;9.678;2023-05-10T08:47:30;16.00;1.00
7822;DHT22;3956;50.558;9.678;2023-05-10T08:50:00;15.90;1.00
7822;DHT22;3956;50.558;9.678;2023-05-10T08:52:35;15.80;1.00
7822;DHT22;3956;50.558;9.678;2023-05-10T08:55:09;15.90;1.00
7822;DHT22;3956;50.558;9.678;2023-05-10T08:57:39;15.60;1.00
7822;DHT22;3956;50.558;9.678;2023-05-10T09:00:12;15.60;1.00
7822;DHT22;3956;50.558;9.678;2023-05-10T09:02:42;15.70;1.00
7822;DHT22;3956;50.558;9.678;2023-05-10T09:05:12;15.90;1.00
7822;DHT22;3956;50.558;9.678;2023-05-10T09:07:49;16.10;1.00
7822;DHT22;3956;50.558;9.678;2023-05-10T09:10:46;16.10;1.00
7822;DHT22;3956;50.558;9.678;2023-05-10T09:13:36;16.00;1.00
7822;DHT22;3956;50.558;9.678;2023-05-10T09:16:07;15.60;1.00
7822;DHT22;3956;50.558;9.678;2023-05-10T09:19:00;15.40;1.00
7822;DHT22;3956;50.558;9.678;2023-05-10T09:21:35;15.50;1.00
7822;DHT22;3956;50.558;9.678;2023-05-10T09:24:14;15.40;1.00
7822;DHT22;3956;50.558;9.678;2023-05-10T09:26:54;15.50;1.00
7822;DHT22;3956;50.558;9.678;2023-05-10T09:33:18;15.80;1.00
7822;DHT22;3956;50.558;9.678;2023-05-10T09:36:05;16.00;1.00
7822;DHT22;3956;50.558;9.678;2023-05-10T09:38:46;16.10;1.00
7822;DHT22;3956;50.558;9.678;2023-05-10T09:41:21;16.00;1.00
7822;DHT22;3956;50.558;9.678;2023-05-10T09:43:49;15.90;1.00
7822;DHT22;3956;50.558;9.678;2023-05-10T09:46:20;16.20;1.00
7822;DHT22;3956;50.558;9.678;2023-05-10T09:49:02;15.80;1.00
7822;DHT22;3956;50.558;9.678;2023-05-10T09:51:35;15.10;1.00
7822;DHT22;3956;50.558;9.678;2023-05-10T09:54:11;15.00;1.00
7822;DHT22;3956;50.558;9.678;2023-05-10T09:56:40;15.10;1.00
7822;DHT22;3956;50.558;9.678;2023-05-10T09:59:10;15.40;1.00
7822;DHT22;3956;50.558;9.678;2023-05-10T10:01:49;15.80;1.00
7822;DHT22;3956;50.558;9.678;2023-05-10T10:04:28;16.30;1.00
7822;DHT22;3956;50.558;9.678;2023-05-10T10:07:01;16.00;1.00
7822;DHT22;3956;50.558;9.678;2023-05-10T10:09:33;16.30;1.00
7822;DHT22;3956;50.558;9.678;2023-05-10T10:12:04;16.40;1.00
7822;DHT22;3956;50.558;9.678;2023-05-10T10:14:35;16.60;1.00
7822;DHT22;3956;50.558;9.678;2023-05-10T10:17:11;16.40;1.00
7822;DHT22;3956;50.558;9.678;2023-05-10T10:19:54;16.50;1.00
7822;DHT22;3956;50.558;9.678;2023-05-10T10:22:23;17.00;1.00
7822;DHT22;3956;50.558;9.678;2023-05-10T10:24:51;17.20;1.00
7822;DHT22;3956;50.558;9.678;2023-05-10T10:27:32;17.10;1.00
7822;DHT22;3956;50.558;9.678;2023-05-10T10:30:25;17.20;1.00
7822;DHT22;3956;50.558;9.678;2023-05-10T10:35:58;17.20;1.00
7822;DHT22;3956;50.558;9.678;2023-05-10T10:38:36;17.20;1.00
7822;DHT22;3956;50.558;9.678;2023-05-10T10:41:12;16.80;1.00
7822;DHT22;3956;50.558;9.678;2023-05-10T10:43:48;16.80;1.00
7822;DHT22;3956;50.558;9.678;2023-05-10T10:46:21;16.90;1.00
7822;DHT22;3956;50.558;9.678;2023-05-10T10:49:09;17.30;1.00
7822;DHT22;3956;50.558;9.678;2023-05-10T10:52:22;17.60;1.00
7822;DHT22;3956;50.558;9.678;2023-05-10T10:55:20;17.60;1.00
7822;DHT22;3956;50.558;9.678;2023-05-10T10:58:29;18.00;1.00
7822;DHT22;3956;50.558;9.678;2023-05-10T11:01:12;18.20;1.00
7822;DHT22;3956;50.558;9.678;2023-05-10T11:06:50;17.40;1.00
7822;DHT22;3956;50.558;9.678;2023-05-10T11:10:34;17.60;1.00
7822;DHT22;3956;50.558;9.678;2023-05-10T11:13:45;17.50;1.00
7822;DHT22;3956;50.558;9.678;2023-05-10T11:16:44;17.40;1.00
7822;DHT22;3956;50.558;9.678;2023-05-10T11:20:08;17.50;1.00
7822;DHT22;3956;50.558;9.678;2023-05-10T11:22:50;17.70;1.00
7822;DHT22;3956;50.558;9.678;2023-05-10T11:25:19;17.90;1.00
7822;DHT22;3956;50.558;9.678;2023-05-10T11:27:50;18.10;1.00
7822;DHT22;3956;50.558;9.678;2023-05-10T11:30:19;18.20;1.00
7822;DHT22;3956;50.558;9.678;2023-05-10T11:32:54;18.10;1.00
7822;DHT22;3956;50.558;9.678;2023-05-10T11:35:27;18.00;1.00
7822;DHT22;3956;50.558;9.678;2023-05-10T11:38:01;17.40;1.00
7822;DHT22;3956;50.558;9.678;2023-05-10T11:40:30;17.60;1.00
7822;DHT22;3956;50.558;9.678;2023-05-10T11:43:04;17.60;1.00
7822;DHT22;3956;50.558;9.678;2023-05-10T11:45:34;17.20;1.00
7822;DHT22;3956;50.558;9.678;2023-05-10T11:48:04;17.20;1.00
7822;DHT22;3956;50.558;9.678;2023-05-10T11:50:51;16.10;1.00
7822;DHT22;3956;50.558;9.678;2023-05-10T11:53:36;13.40;99.90
7822;DHT22;3956;50.558;9.678;2023-05-10T11:56:15;13.10;99.90
7822;DHT22;3956;50.558;9.678;2023-05-10T11:59:13;12.80;99.90
7822;DHT22;3956;50.558;9.678;2023-05-10T12:01:48;12.60;99.90
7822;DHT22;3956;50.558;9.678;2023-05-10T12:04:19;12.90;99.90
7822;DHT22;3956;50.558;9.678;2023-05-10T12:06:47;14.30;99.90
7822;DHT22;3956;50.558;9.678;2023-05-10T12:09:17;15.00;99.90
7822;DHT22;3956;50.558;9.678;2023-05-10T12:12:05;15.00;99.90
7822;DHT22;3956;50.558;9.678;2023-05-10T12:14:34;14.90;99.90
7822;DHT22;3956;50.558;9.678;2023-05-10T12:17:04;14.90;99.90
7822;DHT22;3956;50.558;9.678;2023-05-10T12:19:40;15.00;99.90
7822;DHT22;3956;50.558;9.678;2023-05-10T12:22:20;15.30;99.90
7822;DHT22;3956;50.558;9.678;2023-05-10T12:25:22;15.40;99.90
7822;DHT22;3956;50.558;9.678;2023-05-10T12:28:09;15.70;99.90
7822;DHT22;3956;50.558;9.678;2023-05-10T12:30:38;15.80;99.90
7822;DHT22;3956;50.558;9.678;2023-05-10T12:33:15;15.90;99.90
7822;DHT22;3956;50.558;9.678;2023-05-10T12:36:16;15.70;99.90
7822;DHT22;3956;50.558;9.678;2023-05-10T12:39:16;16.20;99.90
7822;DHT22;3956;50.558;9.678;2023-05-10T12:41:48;15.90;99.90
7822;DHT22;3956;50.558;9.678;2023-05-10T12:44:29;16.20;99.90
7822;DHT22;3956;50.558;9.678;2023-05-10T12:47:17;16.50;99.90
7822;DHT22;3956;50.558;9.678;2023-05-10T12:49:54;15.70;99.90
7822;DHT22;3956;50.558;9.678;2023-05-10T12:52:28;16.60;99.90
7822;DHT22;3956;50.558;9.678;2023-05-10T12:55:07;16.50;99.90
7822;DHT22;3956;50.558;9.678;2023-05-10T12:57:56;16.80;99.90
7822;DHT22;3956;50.558;9.678;2023-05-10T13:00:24;16.80;99.90
7822;DHT22;3956;50.558;9.678;2023-05-10T13:02:52;16.70;99.90
7822;DHT22;3956;50.558;9.678;2023-05-10T13:05:33;16.40;99.90
7822;DHT22;3956;50.558;9.678;2023-05-10T13:08:19;16.40;99.90
7822;DHT22;3956;50.558;9.678;2023-05-10T13:10:51;16.20;99.90
7822;DHT22;3956;50.558;9.678;2023-05-10T13:13:21;15.70;99.90
7822;DHT22;3956;50.558;9.678;2023-05-10T13:15:58;15.40;99.90
7822;DHT22;3956;50.558;9.678;2023-05-10T13:18:26;15.80;99.90
7822;DHT22;3956;50.558;9.678;2023-05-10T13:20:54;15.80;99.90
7822;DHT22;3956;50.558;9.678;2023-05-10T13:23:25;14.80;99.90
7822;DHT22;3956;50.558;9.678;2023-05-10T13:25:54;14.90;99.90
7822;DHT22;3956;50.558;9.678;2023-05-10T13:28:22;14.30;99.90
7822;DHT22;3956;50.558;9.678;2023-05-10T13:31:03;14.80;99.90
7822;DHT22;3956;50.558;9.678;2023-05-10T13:33:32;14.90;99.90
7822;DHT22;3956;50.558;9.678;2023-05-10T13:36:02;15.00;99.90
7822;DHT22;3956;50.558;9.678;2023-05-10T13:38:32;15.10;1.00
7822;DHT22;3956;50.558;9.678;2023-05-10T13:41:02;15.20;1.00
7822;DHT22;3956;50.558;9.678;2023-05-10T13:43:30;15.00;99.90
7822;DHT22;3956;50.558;9.678;2023-05-10T13:46:01;15.40;99.90
7822;DHT22;3956;50.558;9.678;2023-05-10T13:48:48;15.30;1.00
7822;DHT22;3956;50.558;9.678;2023-05-10T13:51:22;16.00;1.00
7822;DHT22;3956;50.558;9.678;2023-05-10T13:53:52;16.20;1.00
7822;DHT22;3956;50.558;9.678;2023-05-10T13:56:22;16.20;1.00
7822;DHT22;3956;50.558;9.678;2023-05-10T13:59:15;16.30;1.00
7822;DHT22;3956;50.558;9.678;2023-05-10T14:02:10;16.20;1.00
7822;DHT22;3956;50.558;9.678;2023-05-10T14:04:40;16.40;1.00
7822;DHT22;3956;50.558;9.678;2023-05-10T14:07:09;15.70;1.00
7822;DHT22;3956;50.558;9.678;2023-05-10T14:09:52;16.20;1.00
7822;DHT22;3956;50.558;9.678;2023-05-10T14:12:46;16.10;1.00
7822;DHT22;3956;50.558;9.678;2023-05-10T14:15:19;15.70;1.00
7822;DHT22;3956;50.558;9.678;2023-05-10T14:17:48;15.30;1.00
7822;DHT22;3956;50.558;9.678;2023-05-10T14:20:18;15.40;1.00
7822;DHT22;3956;50.558;9.678;2023-05-10T14:22:48;15.90;1.00
7822;DHT22;3956;50.558;9.678;2023-05-10T14:25:24;16.20;1.00
7822;DHT22;3956;50.558;9.678;2023-05-10T14:27:52;15.80;1.00
7822;DHT22;3956;50.558;9.678;2023-05-10T14:30:21;15.60;1.00
7822;DHT22;3956;50.558;9.678;2023-05-10T14:32:53;15.40;1.00
7822;DHT22;3956;50.558;9.678;2023-05-10T14:35:45;15.60;1.00
7822;DHT22;3956;50.558;9.678;2023-05-10T14:38:26;15.70;1.00
7822;DHT22;3956;50.558;9.678;2023-05-10T14:41:07;15.90;1.00
7822;DHT22;3956;50.558;9.678;2023-05-10T14:43:42;15.80;1.00
7822;DHT22;3956;50.558;9.678;2023-05-10T14:46:18;15.50;1.00
7822;DHT22;3956;50.558;9.678;2023-05-10T14:49:13;15.60;1.00
7822;DHT22;3956;50.558;9.678;2023-05-10T14:51:46;15.50;1.00
7822;DHT22;3956;50.558;9.678;2023-05-10T14:54:42;15.60;1.00
7822;DHT22;3956;50.558;9.678;2023-05-10T14:57:51;15.50;1.00
7822;DHT22;3956;50.558;9.678;2023-05-10T15:03:17;15.60;1.00
7822;DHT22;3956;50.558;9.678;2023-05-10T15:05:46;15.30;1.00
7822;DHT22;3956;50.558;9.678;2023-05-10T15:08:28;15.40;1.00
7822;DHT22;3956;50.558;9.678;2023-05-10T15:11:53;15.70;1.00
7822;DHT22;3956;50.558;9.678;2023-05-10T15:14:29;15.70;1.00
7822;DHT22;3956;50.558;9.678;2023-05-10T15:16:59;15.30;1.00
7822;DHT22;3956;50.558;9.678;2023-05-10T15:20:01;15.30;1.00
7822;DHT22;3956;50.558;9.678;2023-05-10T15:23:19;14.80;1.00
7822;DHT22;3956;50.558;9.678;2023-05-10T15:26:00;15.00;1.00
7822;DHT22;3956;50.558;9.678;2023-05-10T15:28:29;14.90;1.00
7822;DHT22;3956;50.558;9.678;2023-05-10T15:31:02;14.80;1.00
7822;DHT22;3956;50.558;9.678;2023-05-10T15:33:39;15.10;99.90
7822;DHT22;3956;50.558;9.678;2023-05-10T15:36:43;14.80;1.00
7822;DHT22;3956;50.558;9.678;2023-05-10T15:39:39;14.70;1.00
7822;DHT22;3956;50.558;9.678;2023-05-10T15:42:07;14.50;93.80
7822;DHT22;3956;50.558;9.678;2023-05-10T15:44:37;14.60;1.00
7822;DHT22;3956;50.558;9.678;2023-05-10T15:47:29;14.50;99.90
7822;DHT22;3956;50.558;9.678;2023-05-10T15:50:34;14.80;99.90
7822;DHT22;3956;50.558;9.678;2023-05-10T15:53:16;14.60;99.90
7822;DHT22;3956;50.558;9.678;2023-05-10T15:56:30;14.50;99.90
7822;DHT22;3956;50.558;9.678;2023-05-10T15:58:59;14.70;1.00
7822;DHT22;3956;50.558;9.678;2023-05-10T16:01:30;14.50;1.00
7822;DHT22;3956;50.558;9.678;2023-05-10T16:04:10;14.80;99.90
7822;DHT22;3956;50.558;9.678;2023-05-10T16:06:39;14.90;95.70
7822;DHT22;3956;50.558;9.678;2023-05-10T16:09:15;14.80;1.00
7822;DHT22;3956;50.558;9.678;2023-05-10T16:11:52;14.90;1.00
7822;DHT22;3956;50.558;9.678;2023-05-10T16:14:20;15.10;1.00
7822;DHT22;3956;50.558;9.678;2023-05-10T16:16:51;15.20;1.00
7822;DHT22;3956;50.558;9.678;2023-05-10T16:19:30;15.10;1.00
7822;DHT22;3956;50.558;9.678;2023-05-10T16:21:58;14.80;1.00
7822;DHT22;3956;50.558;9.678;2023-05-10T16:24:30;14.90;1.00
7822;DHT22;3956;50.558;9.678;2023-05-10T16:27:06;15.00;1.00
7822;DHT22;3956;50.558;9.678;2023-05-10T16:29:34;15.10;1.00
7822;DHT22;3956;50.558;9.678;2023-05-10T16:32:04;15.10;1.00
7822;DHT22;3956;50.558;9.678;2023-05-10T16:34:46;15.20;1.00
7822;DHT22;3956;50.558;9.678;2023-05-10T16:37:19;15.10;1.00
7822;DHT22;3956;50.558;9.678;2023-05-10T16:39:47;15.20;1.00
7822;DHT22;3956;50.558;9.678;2023-05-10T16:42:18;15.30;1.00
7822;DHT22;3956;50.558;9.678;2023-05-10T16:44:48;15.30;1.00
7822;DHT22;3956;50.558;9.678;2023-05-10T16:47:18;15.30;1.00
7822;DHT22;3956;50.558;9.678;2023-05-10T16:49:50;15.30;1.00
7822;DHT22;3956;50.558;9.678;2023-05-10T16:52:19;15.30;1.00
7822;DHT22;3956;50.558;9.678;2023-05-10T16:58:10;15.30;1.00
7822;DHT22;3956;50.558;9.678;2023-05-10T17:00:45;15.30;1.00
7822;DHT22;3956;50.558;9.678;2023-05-10T17:03:15;15.10;1.00
7822;DHT22;3956;50.558;9.678;2023-05-10T17:06:00;15.10;1.00
7822;DHT22;3956;50.558;9.678;2023-05-10T17:08:35;15.10;1.00
7822;DHT22;3956;50.558;9.678;2023-05-10T17:11:07;15.10;1.00
7822;DHT22;3956;50.558;9.678;2023-05-10T17:13:44;15.30;1.00
7822;DHT22;3956;50.558;9.678;2023-05-10T17:16:13;15.30;1.00
7822;DHT22;3956;50.558;9.678;2023-05-10T17:18:44;15.00;1.00
7822;DHT22;3956;50.558;9.678;2023-05-10T17:21:19;15.00;1.00
7822;DHT22;3956;50.558;9.678;2023-05-10T17:24:04;15.10;1.00
7822;DHT22;3956;50.558;9.678;2023-05-10T17:27:00;15.10;1.00
7822;DHT22;3956;50.558;9.678;2023-05-10T17:29:29;15.00;1.00
7822;DHT22;3956;50.558;9.678;2023-05-10T17:32:00;15.00;1.00
7822;DHT22;3956;50.558;9.678;2023-05-10T17:34:29;15.10;1.00
7822;DHT22;3956;50.558;9.678;2023-05-10T17:37:03;14.90;1.00
7822;DHT22;3956;50.558;9.678;2023-05-10T17:39:36;15.10;1.00
7822;DHT22;3956;50.558;9.678;2023-05-10T17:42:23;15.10;1.00
7822;DHT22;3956;50.558;9.678;2023-05-10T17:45:00;15.10;1.00
7822;DHT22;3956;50.558;9.678;2023-05-10T17:47:33;15.00;1.00